createdAt,value
2023-03-05T00:00:49.623Z,49.18
2023-03-05T00:01:49.618Z,49.59
2023-03-05T00:02:49.729Z,58.12
2023-03-05T00:03:49.665Z,49.82
2023-03-05T00:04:49.596Z,49.10
2023-03-05T00:05:49.590Z,48.26
2023-03-05T00:06:49.582Z,49.36
2023-03-05T00:07:49.623Z,53.81
2023-03-05T00:08:49.557Z,49.52
2023-03-05T00:09:49.549Z,50.28
2023-03-05T00:10:49.540Z,50.33
2023-03-05T00:11:49.543Z,59.91
2023-03-05T00:12:49.554Z,58.00
2023-03-05T00:13:49.544Z,47.72
2023-03-05T00:14:49.514Z,50.84
2023-03-05T00:15:49.518Z,45.90
2023-03-05T00:16:49.486Z,44.27
2023-03-05T00:17:49.516Z,48.38
2023-03-05T00:18:49.485Z,57.07
2023-03-05T00:19:49.492Z,53.79
2023-03-05T00:20:49.504Z,47.19
2023-03-05T00:21:49.449Z,45.94
2023-03-05T00:22:49.466Z,46.56
2023-03-05T00:23:49.432Z,46.89
2023-03-05T00:24:49.422Z,47.34
2023-03-05T00:25:49.429Z,48.77
2023-03-05T00:26:49.406Z,45.65
2023-03-05T00:27:49.431Z,41.82
2023-03-05T00:28:49.398Z,45.38
2023-03-05T00:29:49.392Z,47.64
2023-03-05T00:30:49.415Z,42.43
2023-03-05T00:31:49.380Z,43.39
2023-03-05T00:32:49.401Z,47.10
2023-03-05T00:33:49.364Z,52.71
2023-03-05T00:34:49.366Z,46.65
2023-03-05T00:35:49.387Z,51.34
2023-03-05T00:36:49.345Z,50.94
2023-03-05T00:37:49.393Z,46.38
2023-03-05T00:38:49.330Z,47.07
2023-03-05T00:39:49.337Z,42.21
2023-03-05T00:40:49.310Z,50.84
2023-03-05T00:41:49.303Z,43.70
2023-03-05T00:42:49.334Z,46.60
2023-03-05T00:43:49.287Z,44.18
2023-03-05T00:44:49.273Z,49.06
2023-03-05T00:45:49.267Z,50.77
2023-03-05T00:46:49.319Z,55.27
2023-03-05T00:47:49.309Z,56.81
2023-03-05T00:48:49.273Z,56.61
2023-03-05T00:49:49.280Z,58.71
2023-03-05T00:50:49.238Z,58.23
2023-03-05T00:51:49.280Z,58.39
2023-03-05T00:52:49.246Z,59.13
2023-03-05T00:53:49.209Z,59.89
2023-03-05T00:54:49.205Z,60.89
2023-03-05T00:55:49.203Z,60.26
2023-03-05T00:56:49.208Z,60.54
2023-03-05T00:57:49.217Z,60.45
2023-03-05T00:58:49.189Z,59.28
2023-03-05T00:59:49.155Z,60.51
2023-03-05T01:00:49.150Z,60.41
2023-03-05T01:01:49.192Z,60.20
2023-03-05T01:02:49.158Z,60.82
2023-03-05T01:03:49.162Z,62.04
2023-03-05T01:04:49.151Z,60.53
2023-03-05T01:05:49.097Z,60.11
2023-03-05T01:06:49.108Z,58.79
2023-03-05T01:07:49.112Z,58.26
2023-03-05T01:08:49.098Z,57.95
2023-03-05T01:09:49.074Z,58.31
2023-03-05T01:10:49.060Z,58.53
2023-03-05T01:11:49.062Z,60.42
2023-03-05T01:12:49.069Z,60.00
2023-03-05T01:13:49.111Z,60.92
2023-03-05T01:14:49.041Z,60.47
2023-03-05T01:15:49.094Z,60.90
2023-03-05T01:16:49.018Z,60.86
2023-03-05T01:17:49.025Z,60.75
2023-03-05T01:18:49.011Z,60.95
2023-03-05T01:19:48.985Z,60.41
2023-03-05T01:20:49.024Z,60.42
2023-03-05T01:21:48.963Z,60.34
2023-03-05T01:22:48.989Z,60.14
2023-03-05T01:23:48.977Z,60.46
2023-03-05T01:24:48.946Z,60.62
2023-03-05T01:25:49.002Z,60.46
2023-03-05T01:26:48.938Z,60.13
2023-03-05T01:27:48.946Z,60.13
2023-03-05T01:28:48.913Z,60.40
2023-03-05T01:29:48.916Z,60.24
2023-03-05T01:30:48.908Z,59.28
2023-03-05T01:31:48.974Z,46.93
2023-03-05T01:32:48.943Z,51.45
2023-03-05T01:33:48.902Z,41.64
2023-03-05T01:34:48.875Z,39.45
2023-03-05T01:35:49.092Z,49.95
2023-03-05T01:36:48.862Z,43.17
2023-03-05T01:37:48.882Z,40.80
2023-03-05T01:38:48.833Z,40.78
2023-03-05T01:39:48.841Z,40.78
2023-03-05T01:40:48.831Z,40.84
2023-03-05T01:41:48.892Z,43.67
2023-03-05T01:42:48.837Z,41.00
2023-03-05T01:43:48.815Z,42.60
2023-03-05T01:44:48.795Z,54.39
2023-03-05T01:45:48.842Z,48.49
2023-03-05T01:46:48.780Z,43.56
2023-03-05T01:47:48.797Z,44.35
2023-03-05T01:48:48.820Z,43.51
2023-03-05T01:49:48.826Z,40.80
2023-03-05T01:50:48.776Z,41.06
2023-03-05T01:51:48.770Z,50.57
2023-03-05T01:52:48.770Z,48.73
2023-03-05T01:53:48.730Z,43.48
2023-03-05T01:54:48.719Z,48.61
2023-03-05T01:55:48.704Z,43.39
2023-03-05T01:56:48.744Z,42.79
2023-03-05T01:57:48.724Z,41.01
2023-03-05T01:58:48.688Z,43.69
2023-03-05T01:59:48.684Z,43.23
2023-03-05T02:00:48.707Z,48.86
2023-03-05T02:01:49.712Z,47.18
2023-03-05T02:02:48.723Z,42.94
2023-03-05T02:03:48.883Z,43.45
2023-03-05T02:04:48.680Z,41.05
2023-03-05T02:05:48.663Z,49.02
2023-03-05T02:06:48.617Z,41.42
2023-03-05T02:07:48.620Z,43.87
2023-03-05T02:08:48.634Z,41.72
2023-03-05T02:09:48.602Z,48.46
2023-03-05T02:10:48.617Z,48.43
2023-03-05T02:11:48.605Z,51.66
2023-03-05T02:12:48.616Z,46.54
2023-03-05T02:13:48.597Z,48.75
2023-03-05T02:14:48.576Z,44.55
2023-03-05T02:15:48.564Z,61.60
2023-03-05T02:16:48.577Z,46.71
2023-03-05T02:17:48.632Z,44.45
2023-03-05T02:18:48.564Z,45.20
2023-03-05T02:19:48.629Z,45.29
2023-03-05T02:20:48.518Z,49.24
2023-03-05T02:21:48.543Z,44.98
2023-03-05T02:22:48.515Z,46.30
2023-03-05T02:23:48.542Z,46.35
2023-03-05T02:24:48.491Z,45.43
2023-03-05T02:25:48.484Z,41.65
2023-03-05T02:26:49.472Z,41.54
2023-03-05T02:27:48.485Z,41.61
2023-03-05T02:28:48.489Z,41.81
2023-03-05T02:29:48.484Z,44.71
2023-03-05T02:30:48.482Z,44.72
2023-03-05T02:31:48.481Z,46.40
2023-03-05T02:32:48.474Z,42.76
2023-03-05T02:33:48.496Z,41.79
2023-03-05T02:34:48.468Z,44.70
2023-03-05T02:35:48.488Z,46.02
2023-03-05T02:36:48.387Z,45.65
2023-03-05T02:37:48.396Z,48.33
2023-03-05T02:38:48.418Z,49.32
2023-03-05T02:39:48.366Z,44.43
2023-03-05T02:40:48.393Z,47.62
2023-03-05T02:41:48.348Z,44.65
2023-03-05T02:42:48.383Z,45.27
2023-03-05T02:43:48.367Z,43.68
2023-03-05T02:44:48.334Z,45.10
2023-03-05T02:45:48.331Z,46.25
2023-03-05T02:46:48.319Z,43.06
2023-03-05T02:47:48.307Z,43.51
2023-03-05T02:48:48.331Z,45.35
2023-03-05T02:49:48.292Z,45.54
2023-03-05T02:50:48.284Z,41.71
2023-03-05T02:51:48.282Z,46.83
2023-03-05T02:52:48.279Z,56.80
2023-03-05T02:53:48.306Z,45.80
2023-03-05T02:54:48.258Z,42.55
2023-03-05T02:55:48.251Z,45.94
2023-03-05T02:56:48.238Z,44.82
2023-03-05T02:57:48.246Z,45.50
2023-03-05T02:58:48.252Z,44.30
2023-03-05T02:59:48.241Z,47.26
2023-03-05T03:00:48.209Z,46.77
2023-03-05T03:01:48.211Z,48.68
2023-03-05T03:02:48.219Z,56.38
2023-03-05T03:03:48.213Z,42.24
2023-03-05T03:04:48.195Z,41.85
2023-03-05T03:05:48.185Z,44.38
2023-03-05T03:06:48.172Z,45.59
2023-03-05T03:07:48.162Z,43.65
2023-03-05T03:08:48.221Z,41.06
2023-03-05T03:09:48.157Z,41.13
2023-03-05T03:10:48.183Z,41.13
2023-03-05T03:11:48.144Z,41.21
2023-03-05T03:12:48.130Z,41.50
2023-03-05T03:13:48.150Z,44.11
2023-03-05T03:14:48.109Z,43.64
2023-03-05T03:15:48.112Z,41.20
2023-03-05T03:16:48.273Z,46.28
2023-03-05T03:17:48.090Z,41.03
2023-03-05T03:18:48.201Z,43.80
2023-03-05T03:19:48.073Z,44.44
2023-03-05T03:20:48.073Z,45.61
2023-03-05T03:21:48.075Z,48.31
2023-03-05T03:22:48.119Z,43.78
2023-03-05T03:23:48.097Z,40.90
2023-03-05T03:24:48.061Z,45.60
2023-03-05T03:25:48.055Z,44.95
2023-03-05T03:26:48.037Z,45.37
2023-03-05T03:27:48.025Z,43.12
2023-03-05T03:28:48.354Z,40.84
2023-03-05T03:29:48.016Z,44.35
2023-03-05T03:30:48.059Z,43.93
2023-03-05T03:31:47.998Z,47.08
2023-03-05T03:32:48.009Z,42.32
2023-03-05T03:33:47.993Z,44.63
2023-03-05T03:34:49.691Z,52.60
2023-03-05T03:35:48.076Z,56.63
2023-03-05T03:36:47.974Z,58.03
2023-03-05T03:37:47.956Z,58.58
2023-03-05T03:38:47.974Z,57.70
2023-03-05T03:39:47.969Z,57.67
2023-03-05T03:40:47.935Z,59.23
2023-03-05T03:41:47.923Z,60.42
2023-03-05T03:42:48.588Z,58.58
2023-03-05T03:43:48.004Z,61.58
2023-03-05T03:44:47.933Z,59.27
2023-03-05T03:45:47.978Z,59.72
2023-03-05T03:46:47.911Z,59.21
2023-03-05T03:47:47.880Z,59.04
2023-03-05T03:48:47.917Z,37.40
2023-03-05T03:49:47.867Z,38.76
2023-03-05T03:50:48.599Z,50.24
2023-03-05T03:51:47.895Z,41.27
2023-03-05T03:52:47.912Z,44.41
2023-03-05T03:53:47.861Z,57.92
2023-03-05T03:54:47.844Z,55.86
2023-03-05T03:55:47.830Z,44.51
2023-03-05T03:56:47.926Z,41.14
2023-03-05T03:57:47.801Z,41.81
2023-03-05T03:58:47.822Z,43.34
2023-03-05T03:59:47.817Z,57.94
2023-03-05T04:00:47.778Z,43.95
2023-03-05T04:01:47.782Z,40.84
2023-03-05T04:02:47.866Z,43.98
2023-03-05T04:03:47.787Z,46.19
2023-03-05T04:04:47.751Z,47.32
2023-03-05T04:05:47.754Z,56.19
2023-03-05T04:06:47.759Z,43.83
2023-03-05T04:07:47.727Z,44.51
2023-03-05T04:08:47.746Z,47.15
2023-03-05T04:09:47.709Z,45.33
2023-03-05T04:10:48.316Z,57.09
2023-03-05T04:11:47.765Z,41.09
2023-03-05T04:12:47.705Z,40.63
2023-03-05T04:13:47.756Z,52.01
2023-03-05T04:14:47.677Z,55.22
2023-03-05T04:15:47.699Z,42.11
2023-03-05T04:16:47.665Z,43.05
2023-03-05T04:17:47.655Z,45.14
2023-03-05T04:18:47.689Z,40.42
2023-03-05T04:19:47.663Z,41.86
2023-03-05T04:20:47.625Z,59.27
2023-03-05T04:21:47.643Z,55.93
2023-03-05T04:22:47.652Z,43.32
2023-03-05T04:23:47.654Z,45.81
2023-03-05T04:24:49.094Z,42.91
2023-03-05T04:25:47.624Z,55.43
2023-03-05T04:26:47.655Z,50.28
2023-03-05T04:27:47.749Z,40.67
2023-03-05T04:28:47.623Z,43.14
2023-03-05T04:29:47.616Z,54.04
2023-03-05T04:30:47.646Z,43.95
2023-03-05T04:31:47.548Z,43.94
2023-03-05T04:32:47.550Z,44.05
2023-03-05T04:33:47.669Z,45.69
2023-03-05T04:34:47.552Z,48.05
2023-03-05T04:35:47.534Z,58.93
2023-03-05T04:36:48.525Z,48.24
2023-03-05T04:37:47.501Z,49.58
2023-03-05T04:38:47.494Z,42.98
2023-03-05T04:39:47.523Z,42.59
2023-03-05T04:40:47.483Z,44.85
2023-03-05T04:41:47.466Z,40.53
2023-03-05T04:42:47.481Z,45.38
2023-03-05T04:43:47.448Z,42.77
2023-03-05T04:44:47.483Z,42.55
2023-03-05T04:45:47.433Z,43.70
2023-03-05T04:46:47.454Z,40.58
2023-03-05T04:47:47.434Z,40.90
2023-03-05T04:48:47.408Z,46.09
2023-03-05T04:49:47.442Z,46.95
2023-03-05T04:50:47.427Z,46.57
2023-03-05T04:51:47.413Z,40.78
2023-03-05T04:52:47.383Z,45.84
2023-03-05T04:53:47.373Z,44.40
2023-03-05T04:54:47.410Z,43.69
2023-03-05T04:55:47.350Z,43.12
2023-03-05T04:56:47.419Z,43.03
2023-03-05T04:57:47.541Z,44.03
2023-03-05T04:58:47.312Z,45.31
2023-03-05T04:59:48.346Z,46.81
2023-03-05T05:00:47.347Z,40.81
2023-03-05T05:01:47.341Z,44.53
2023-03-05T05:02:47.352Z,43.24
2023-03-05T05:03:47.289Z,46.98
2023-03-05T05:04:47.388Z,58.68
2023-03-05T05:05:48.094Z,46.87
2023-03-05T05:06:48.109Z,48.11
2023-03-05T05:07:50.108Z,40.61
2023-03-05T05:08:48.155Z,40.39
2023-03-05T05:09:48.101Z,40.65
2023-03-05T05:10:49.105Z,49.24
2023-03-05T05:11:47.781Z,42.94
2023-03-05T05:12:49.666Z,40.88
2023-03-05T05:13:47.276Z,43.15
2023-03-05T05:14:49.148Z,43.78
2023-03-05T05:15:48.672Z,43.96
2023-03-05T05:16:47.260Z,58.39
2023-03-05T05:17:49.108Z,47.95
2023-03-05T05:19:10.160Z,56.33
2023-03-05T05:19:47.885Z,42.92
2023-03-05T05:20:48.162Z,45.77
2023-03-05T05:21:53.607Z,45.94
2023-03-05T05:22:48.967Z,42.09
2023-03-05T05:23:49.132Z,46.95
2023-03-05T05:24:50.659Z,44.43
2023-03-05T05:25:48.604Z,44.95
2023-03-05T05:26:47.884Z,48.99
2023-03-05T05:27:50.163Z,51.76
2023-03-05T05:28:51.597Z,51.98
2023-03-05T05:29:49.621Z,58.16
2023-03-05T05:30:47.735Z,59.37
2023-03-05T05:31:48.705Z,58.31
2023-03-05T05:32:47.863Z,60.76
2023-03-05T05:33:49.814Z,61.09
2023-03-05T05:34:48.807Z,61.11
2023-03-05T05:35:47.821Z,60.78
2023-03-05T05:36:48.669Z,60.67
2023-03-05T05:37:47.954Z,60.68
2023-03-05T05:38:49.304Z,60.56
2023-03-05T05:39:47.163Z,60.49
2023-03-05T05:40:48.818Z,62.00
2023-03-05T05:41:48.847Z,60.45
2023-03-05T05:42:47.806Z,60.26
2023-03-05T05:43:48.217Z,60.45
2023-03-05T05:44:49.607Z,60.21
2023-03-05T05:45:47.180Z,60.17
2023-03-05T05:46:49.753Z,60.33
2023-03-05T05:47:48.077Z,60.29
2023-03-05T05:48:50.720Z,60.35
2023-03-05T05:49:51.172Z,60.21
2023-03-05T05:50:49.610Z,60.24
2023-03-05T05:51:48.681Z,60.54
2023-03-05T05:52:46.988Z,60.37
2023-03-05T05:53:47.050Z,60.55
2023-03-05T05:54:48.126Z,60.39
2023-03-05T05:55:48.708Z,60.39
2023-03-05T05:56:47.909Z,60.31
2023-03-05T05:57:47.612Z,60.44
2023-03-05T05:58:49.641Z,60.44
2023-03-05T05:59:48.161Z,60.52
2023-03-05T06:00:47.821Z,64.95
2023-03-05T06:01:48.682Z,60.43
2023-03-05T06:02:47.853Z,60.31
2023-03-05T06:03:47.836Z,60.33
2023-03-05T06:04:48.681Z,60.33
2023-03-05T06:05:46.936Z,60.25
2023-03-05T06:06:48.325Z,60.33
2023-03-05T06:07:48.328Z,59.82
2023-03-05T06:08:47.822Z,60.34
2023-03-05T06:09:48.334Z,59.71
2023-03-05T06:10:49.111Z,59.84
2023-03-05T06:11:48.608Z,60.22
2023-03-05T06:12:51.690Z,59.86
2023-03-05T06:13:48.333Z,59.78
2023-03-05T06:14:49.631Z,59.86
2023-03-05T06:15:48.182Z,60.00
2023-03-05T06:16:47.571Z,59.71
2023-03-05T06:17:47.881Z,59.95
2023-03-05T06:18:49.122Z,59.64
2023-03-05T06:19:47.800Z,59.65
2023-03-05T06:20:49.187Z,59.36
2023-03-05T06:21:46.787Z,59.44
2023-03-05T06:22:47.664Z,59.45
2023-03-05T06:23:47.790Z,59.32
2023-03-05T06:24:47.838Z,59.43
2023-03-05T06:25:48.119Z,59.92
2023-03-05T06:26:48.721Z,59.44
2023-03-05T06:27:50.144Z,59.46
2023-03-05T06:28:47.695Z,59.53
2023-03-05T06:29:49.670Z,59.79
2023-03-05T06:30:49.149Z,59.68
2023-03-05T06:31:49.305Z,59.72
2023-03-05T06:32:47.618Z,59.72
2023-03-05T06:33:49.231Z,59.74
2023-03-05T06:34:47.401Z,59.77
2023-03-05T06:35:46.752Z,59.74
2023-03-05T06:36:47.627Z,59.88
2023-03-05T06:37:47.734Z,59.72
2023-03-05T06:38:48.904Z,62.75
2023-03-05T06:39:48.346Z,60.22
2023-03-05T06:40:48.200Z,59.81
2023-03-05T06:41:47.130Z,59.22
2023-03-05T06:42:47.733Z,59.40
2023-03-05T06:43:47.413Z,59.20
2023-03-05T06:44:48.243Z,59.40
2023-03-05T06:45:50.149Z,60.25
2023-03-05T06:46:46.603Z,61.69
2023-03-05T06:47:48.615Z,59.63
2023-03-05T06:48:47.607Z,59.63
2023-03-05T06:49:46.950Z,59.25
2023-03-05T06:50:50.316Z,59.43
2023-03-05T06:51:48.173Z,59.44
2023-03-05T06:52:47.882Z,59.85
2023-03-05T06:53:49.231Z,59.58
2023-03-05T06:54:51.127Z,59.79
2023-03-05T06:55:48.334Z,59.80
2023-03-05T06:56:46.743Z,59.77
2023-03-05T06:57:47.501Z,59.55
2023-03-05T06:58:48.119Z,59.88
2023-03-05T06:59:47.313Z,59.76
2023-03-05T07:00:49.394Z,59.77
2023-03-05T07:01:47.190Z,59.62
2023-03-05T07:02:48.229Z,59.58
2023-03-05T07:03:48.131Z,59.54
2023-03-05T07:04:49.132Z,59.58
2023-03-05T07:05:47.915Z,60.39
2023-03-05T07:06:47.829Z,60.16
2023-03-05T07:07:47.364Z,62.31
2023-03-05T07:08:47.658Z,59.21
2023-03-05T07:09:50.622Z,59.44
2023-03-05T07:10:47.824Z,59.53
2023-03-05T07:11:48.916Z,59.35
2023-03-05T07:12:48.133Z,59.72
2023-03-05T07:13:46.685Z,59.15
2023-03-05T07:14:48.142Z,59.04
2023-03-05T07:15:47.198Z,59.17
2023-03-05T07:16:46.370Z,59.06
2023-03-05T07:17:46.916Z,62.76
2023-03-05T07:18:48.126Z,59.00
2023-03-05T07:19:47.190Z,59.92
2023-03-05T07:20:47.861Z,59.11
2023-03-05T07:21:47.341Z,58.70
2023-03-05T07:22:47.358Z,58.97
2023-03-05T07:23:47.130Z,58.73
2023-03-05T07:24:47.625Z,59.26
2023-03-05T07:25:47.286Z,61.31
2023-03-05T07:26:47.988Z,58.45
2023-03-05T07:27:47.288Z,58.92
2023-03-05T07:28:47.642Z,58.51
2023-03-05T07:29:48.051Z,58.54
2023-03-05T07:30:47.680Z,58.16
2023-03-05T07:31:47.326Z,57.37
2023-03-05T07:32:47.269Z,56.86
2023-03-05T07:33:46.394Z,57.62
2023-03-05T07:34:47.198Z,59.58
2023-03-05T07:35:46.220Z,57.39
2023-03-05T07:36:46.151Z,57.03
2023-03-05T07:37:46.136Z,57.68
2023-03-05T07:38:46.125Z,57.05
2023-03-05T07:39:47.270Z,58.56
2023-03-05T07:40:47.148Z,57.15
2023-03-05T07:41:46.121Z,57.67
2023-03-05T07:42:46.104Z,57.51
2023-03-05T07:43:46.112Z,57.80
2023-03-05T07:44:46.089Z,57.55
2023-03-05T07:45:46.183Z,57.78
2023-03-05T07:46:46.067Z,57.86
2023-03-05T07:47:46.063Z,57.61
2023-03-05T07:48:46.056Z,58.11
2023-03-05T07:49:46.045Z,57.37
2023-03-05T07:50:46.067Z,57.73
2023-03-05T07:51:46.035Z,57.02
2023-03-05T07:52:46.069Z,57.76
2023-03-05T07:53:46.019Z,57.31
2023-03-05T07:54:46.018Z,57.35
2023-03-05T07:55:46.034Z,57.11
2023-03-05T07:56:46.000Z,57.51
2023-03-05T07:57:46.003Z,57.14
2023-03-05T07:58:46.042Z,60.45
2023-03-05T07:59:45.970Z,57.50
2023-03-05T08:00:46.041Z,57.42
2023-03-05T08:01:45.957Z,60.19
2023-03-05T08:02:46.040Z,58.06
2023-03-05T08:03:46.026Z,57.25
2023-03-05T08:04:45.940Z,57.12
2023-03-05T08:05:45.959Z,57.23
2023-03-05T08:06:45.923Z,60.86
2023-03-05T08:07:45.937Z,56.96
2023-03-05T08:08:45.932Z,57.47
2023-03-05T08:09:45.918Z,57.97
2023-03-05T08:10:45.925Z,57.99
2023-03-05T08:11:45.882Z,58.80
2023-03-05T08:12:45.880Z,57.76
2023-03-05T08:13:45.870Z,58.04
2023-03-05T08:14:45.866Z,57.31
2023-03-05T08:15:45.910Z,49.45
2023-03-05T08:16:47.910Z,52.46
2023-03-05T08:17:46.837Z,48.42
2023-03-05T08:18:45.839Z,46.75
2023-03-05T08:19:45.817Z,45.18
2023-03-05T08:20:45.838Z,42.64
2023-03-05T08:21:45.817Z,49.51
2023-03-05T08:22:45.810Z,51.52
2023-03-05T08:23:45.802Z,52.93
2023-03-05T08:24:45.808Z,49.89
2023-03-05T08:25:45.823Z,51.44
2023-03-05T08:26:45.771Z,48.38
2023-03-05T08:27:45.773Z,48.22
2023-03-05T08:28:45.757Z,50.28
2023-03-05T08:29:45.762Z,48.03
2023-03-05T08:30:45.787Z,47.90
2023-03-05T08:31:45.734Z,47.95
2023-03-05T08:32:45.732Z,50.42
2023-03-05T08:33:45.712Z,47.82
2023-03-05T08:34:45.707Z,50.05
2023-03-05T08:35:45.760Z,50.77
2023-03-05T08:36:45.693Z,52.83
2023-03-05T08:37:45.690Z,46.09
2023-03-05T08:38:45.685Z,51.40
2023-03-05T08:39:45.671Z,49.49
2023-03-05T08:40:45.687Z,56.27
2023-03-05T08:41:45.726Z,50.31
2023-03-05T08:42:45.654Z,49.57
2023-03-05T08:43:45.687Z,52.21
2023-03-05T08:44:45.637Z,52.52
2023-03-05T08:45:45.655Z,52.04
2023-03-05T08:46:45.658Z,57.16
2023-03-05T08:47:45.616Z,54.48
2023-03-05T08:48:45.610Z,49.14
2023-03-05T08:49:45.588Z,51.68
2023-03-05T08:50:45.613Z,50.14
2023-03-05T08:51:45.578Z,47.22
2023-03-05T08:52:45.602Z,51.75
2023-03-05T08:53:45.562Z,50.34
2023-03-05T08:54:45.610Z,46.09
2023-03-05T08:55:45.574Z,49.51
2023-03-05T08:56:45.534Z,48.52
2023-03-05T08:57:45.531Z,48.62
2023-03-05T08:58:45.532Z,50.01
2023-03-05T08:59:45.547Z,54.77
2023-03-05T09:00:45.541Z,49.34
2023-03-05T09:01:45.571Z,48.66
2023-03-05T09:02:45.566Z,46.52
2023-03-05T09:03:45.501Z,47.28
2023-03-05T09:04:45.479Z,51.51
2023-03-05T09:05:45.498Z,50.21
2023-03-05T09:06:45.472Z,49.10
2023-03-05T09:07:45.452Z,48.90
2023-03-05T09:08:45.448Z,46.25
2023-03-05T09:09:45.442Z,51.67
2023-03-05T09:10:45.469Z,49.33
2023-03-05T09:11:45.445Z,50.29
2023-03-05T09:12:45.421Z,47.18
2023-03-05T09:13:45.411Z,51.02
2023-03-05T09:14:45.386Z,53.59
2023-03-05T09:15:46.419Z,46.97
2023-03-05T09:16:45.561Z,52.47
2023-03-05T09:17:45.378Z,49.97
2023-03-05T09:18:45.397Z,49.02
2023-03-05T09:19:45.385Z,47.43
2023-03-05T09:20:45.383Z,54.38
2023-03-05T09:21:45.342Z,53.89
2023-03-05T09:22:45.336Z,52.87
2023-03-05T09:23:45.334Z,46.47
2023-03-05T09:24:45.321Z,49.57
2023-03-05T09:25:45.343Z,58.40
2023-03-05T09:26:45.312Z,50.64
2023-03-05T09:27:45.305Z,50.23
2023-03-05T09:28:45.307Z,50.49
2023-03-05T09:29:45.289Z,46.73
2023-03-05T09:30:45.299Z,48.75
2023-03-05T09:31:45.311Z,53.00
2023-03-05T09:32:45.348Z,60.18
2023-03-05T09:33:45.310Z,50.27
2023-03-05T09:34:45.240Z,49.46
2023-03-05T09:35:45.286Z,48.31
2023-03-05T09:36:45.226Z,51.01
2023-03-05T09:37:45.227Z,50.38
2023-03-05T09:38:45.239Z,50.38
2023-03-05T09:39:45.273Z,53.16
2023-03-05T09:40:45.234Z,52.26
2023-03-05T09:41:45.182Z,50.94
2023-03-05T09:42:45.279Z,51.14
2023-03-05T09:43:45.184Z,55.36
2023-03-05T09:44:45.173Z,49.44
2023-03-05T09:45:45.184Z,53.34
2023-03-05T09:46:45.145Z,47.76
2023-03-05T09:47:45.140Z,50.70
2023-03-05T09:48:45.129Z,48.70
2023-03-05T09:49:45.190Z,52.21
2023-03-05T09:50:45.145Z,50.63
2023-03-05T09:51:45.103Z,51.56
2023-03-05T09:52:45.174Z,52.36
2023-03-05T09:53:45.128Z,46.79
2023-03-05T09:54:45.083Z,52.69
2023-03-05T09:55:45.118Z,47.85
2023-03-05T09:56:45.075Z,50.23
2023-03-05T09:57:45.064Z,53.16
2023-03-05T09:58:45.054Z,52.59
2023-03-05T09:59:45.053Z,48.54
2023-03-05T10:00:45.095Z,50.89
2023-03-05T10:01:45.044Z,49.42
2023-03-05T10:02:45.061Z,48.72
2023-03-05T10:03:45.056Z,51.03
2023-03-05T10:04:45.013Z,48.63
2023-03-05T10:05:45.000Z,48.55
2023-03-05T10:06:45.027Z,49.13
2023-03-05T10:07:44.996Z,49.38
2023-03-05T10:08:44.978Z,47.68
2023-03-05T10:09:44.977Z,52.87
2023-03-05T10:10:44.968Z,49.30
2023-03-05T10:11:44.987Z,51.68
2023-03-05T10:12:44.956Z,53.29
2023-03-05T10:13:44.949Z,49.07
2023-03-05T10:14:44.940Z,51.36
2023-03-05T10:15:44.929Z,47.98
2023-03-05T10:16:44.981Z,51.87
2023-03-05T10:17:44.915Z,51.49
2023-03-05T10:18:44.906Z,52.19
2023-03-05T10:19:44.905Z,51.42
2023-03-05T10:20:44.923Z,53.48
2023-03-05T10:21:44.907Z,51.19
2023-03-05T10:22:44.877Z,50.93
2023-03-05T10:23:44.871Z,51.64
2023-03-05T10:24:44.852Z,52.41
2023-03-05T10:25:44.864Z,53.74
2023-03-05T10:26:44.869Z,47.48
2023-03-05T10:27:44.851Z,50.47
2023-03-05T10:28:44.836Z,50.32
2023-03-05T10:29:44.824Z,54.70
2023-03-05T10:30:44.813Z,56.68
2023-03-05T10:31:44.912Z,50.64
2023-03-05T10:32:44.815Z,51.42
2023-03-05T10:33:44.799Z,54.20
2023-03-05T10:34:44.793Z,59.26
2023-03-05T10:35:44.821Z,56.89
2023-03-05T10:36:44.802Z,53.67
2023-03-05T10:37:44.793Z,54.44
2023-03-05T10:38:44.776Z,51.82
2023-03-05T10:39:44.750Z,51.25
2023-03-05T10:40:44.748Z,58.50
2023-03-05T10:41:44.758Z,55.58
2023-03-05T10:42:44.733Z,47.42
2023-03-05T10:43:44.788Z,52.24
2023-03-05T10:44:44.716Z,60.20
2023-03-05T10:45:44.767Z,52.29
2023-03-05T10:46:44.727Z,50.25
2023-03-05T10:47:44.691Z,53.46
2023-03-05T10:48:44.689Z,50.31
2023-03-05T10:49:44.677Z,52.26
2023-03-05T10:50:45.661Z,53.56
2023-03-05T10:51:44.709Z,51.28
2023-03-05T10:52:44.663Z,54.40
2023-03-05T10:53:44.641Z,53.05
2023-03-05T10:54:44.645Z,52.39
2023-03-05T10:55:44.631Z,53.20
2023-03-05T10:56:44.640Z,53.20
2023-03-05T10:57:44.641Z,52.40
2023-03-05T10:58:44.606Z,52.82
2023-03-05T10:59:44.596Z,53.30
2023-03-05T11:00:44.598Z,51.24
2023-03-05T11:01:44.680Z,54.96
2023-03-05T11:02:44.650Z,51.26
2023-03-05T11:03:44.579Z,53.98
2023-03-05T11:04:44.570Z,50.33
2023-03-05T11:05:44.551Z,52.18
2023-03-05T11:06:44.579Z,53.87
2023-03-05T11:07:44.561Z,53.27
2023-03-05T11:08:44.566Z,52.78
2023-03-05T11:09:44.550Z,50.71
2023-03-05T11:10:44.521Z,51.24
2023-03-05T11:11:44.567Z,51.79
2023-03-05T11:12:44.496Z,49.25
2023-03-05T11:13:44.486Z,51.26
2023-03-05T11:14:44.485Z,48.08
2023-03-05T11:15:44.520Z,56.64
2023-03-05T11:16:44.493Z,51.87
2023-03-05T11:17:44.500Z,52.67
2023-03-05T11:18:44.567Z,49.17
2023-03-05T11:19:44.445Z,54.08
2023-03-05T11:20:44.471Z,53.15
2023-03-05T11:21:44.479Z,54.98
2023-03-05T11:22:44.418Z,51.94
2023-03-05T11:23:44.418Z,54.12
2023-03-05T11:24:44.400Z,50.15
2023-03-05T11:25:44.404Z,60.46
2023-03-05T11:26:44.409Z,53.38
2023-03-05T11:27:44.381Z,51.28
2023-03-05T11:28:44.392Z,59.67
2023-03-05T11:29:44.365Z,54.46
2023-03-05T11:30:44.381Z,50.27
2023-03-05T11:31:44.381Z,52.26
2023-03-05T11:32:44.349Z,54.69
2023-03-05T11:33:44.344Z,55.32
2023-03-05T11:34:44.321Z,49.35
2023-03-05T11:35:44.405Z,50.35
2023-03-05T11:36:44.328Z,52.71
2023-03-05T11:37:44.324Z,58.49
2023-03-05T11:38:44.293Z,51.29
2023-03-05T11:39:44.287Z,47.78
2023-03-05T11:40:44.278Z,58.62
2023-03-05T11:41:44.278Z,49.96
2023-03-05T11:42:44.302Z,53.98
2023-03-05T11:43:44.277Z,55.36
2023-03-05T11:44:44.245Z,50.95
2023-03-05T11:45:44.248Z,51.78
2023-03-05T11:46:44.251Z,52.98
2023-03-05T11:47:44.255Z,53.70
2023-03-05T11:48:44.225Z,48.98
2023-03-05T11:49:44.261Z,53.04
2023-03-05T11:50:44.227Z,52.86
2023-03-05T11:51:44.201Z,52.53
2023-03-05T11:52:44.212Z,55.18
2023-03-05T11:53:44.190Z,49.32
2023-03-05T11:54:44.179Z,49.78
2023-03-05T11:55:44.188Z,52.44
2023-03-05T11:56:44.208Z,56.39
2023-03-05T11:57:45.214Z,55.47
2023-03-05T11:58:44.160Z,53.61
2023-03-05T11:59:44.152Z,55.07
2023-03-05T12:00:44.165Z,54.18
2023-03-05T12:01:44.125Z,57.18
2023-03-05T12:02:44.176Z,51.38
2023-03-05T12:03:44.161Z,49.75
2023-03-05T12:04:44.108Z,52.31
2023-03-05T12:05:44.097Z,52.72
2023-03-05T12:06:44.541Z,54.12
2023-03-05T12:07:44.105Z,51.95
2023-03-05T12:08:44.061Z,52.85
2023-03-05T12:09:45.656Z,52.34
2023-03-05T12:10:44.402Z,50.52
2023-03-05T12:11:44.085Z,50.21
2023-03-05T12:12:44.590Z,48.55
2023-03-05T12:13:44.050Z,51.94
2023-03-05T12:14:44.032Z,53.84
2023-03-05T12:15:44.186Z,52.81
2023-03-05T12:16:44.004Z,51.59
2023-03-05T12:17:44.604Z,48.87
2023-03-05T12:18:43.990Z,53.97
2023-03-05T12:19:43.974Z,52.44
2023-03-05T12:20:44.387Z,50.24
2023-03-05T12:21:44.537Z,51.26
2023-03-05T12:22:44.554Z,49.31
2023-03-05T12:23:44.321Z,48.67
2023-03-05T12:24:43.952Z,53.52
2023-03-05T12:25:44.250Z,53.71
2023-03-05T12:26:44.220Z,54.31
2023-03-05T12:27:44.017Z,48.56
2023-03-05T12:28:44.369Z,53.71
2023-03-05T12:29:43.958Z,55.33
2023-03-05T12:30:43.902Z,51.82
2023-03-05T12:31:44.022Z,52.75
2023-03-05T12:32:43.962Z,54.83
2023-03-05T12:33:43.887Z,54.56
2023-03-05T12:34:44.184Z,54.52
2023-03-05T12:35:44.076Z,53.27
2023-03-05T12:36:43.848Z,53.95
2023-03-05T12:37:44.092Z,55.01
2023-03-05T12:38:43.852Z,56.28
2023-03-05T12:39:44.016Z,55.08
2023-03-05T12:40:43.837Z,52.64
2023-03-05T12:41:44.313Z,53.14
2023-03-05T12:42:43.836Z,51.52
2023-03-05T12:43:43.797Z,52.22
2023-03-05T12:44:43.790Z,54.16
2023-03-05T12:45:44.781Z,56.91
2023-03-05T12:46:43.837Z,52.04
2023-03-05T12:47:43.771Z,51.23
2023-03-05T12:48:43.968Z,52.63
2023-03-05T12:49:43.757Z,53.86
2023-03-05T12:50:43.744Z,54.92
2023-03-05T12:51:43.753Z,57.39
2023-03-05T12:52:43.774Z,56.52